OIII

Mehrabad International Airport

Tehran, Iran
TAF OIII 210530Z 2106/2212 21004MPS 7000 NSC
Issued Valid From Valid To
Jun-21 @ 05:30 UTC
(5 hours ago)
Jun-21 @ 06:00 UTC
(4 hours ago)
Jun-22 @ 12:00 UTC
(-1 days ago)
Jun-21 @ 06:00 to Jun-22 @ 12:00
TAF OIII 210530Z 2106/2212 21004MPS 7000 NSC
Wind Visibility Clouds
210° at 8 knots 7,001 meters
  • No significant clouds
TAF OIII 210530Z 2106/2212 21004MPS 7000 NSC
Issued Jun-21 @ 05:30 UTC
(5 hours ago)
Valid From Jun-21 @ 06:00 UTC
(4 hours ago)
Valid To Jun-22 @ 12:00 UTC
(-1 days ago)
Jun-21 @ 06:00 - Jun-22 @ 12:00
Wind Visibility
210° at 8 knots 7,001 meters
Clouds
  • No significant clouds